Time;durP1;ratioP1;P1;durP2;ratioP2;P2;SDS_P1;SDS_P2;PMS_P1;PMS_P2;Temp;Humidity;BMP_temperature;BMP_pressure;BME280_temperature;BME280_humidity;BME280_pressure;Samples;Min_cycle;Max_cycle;Signal;HPM_P1;HPM_P2
2023/12/17 00:01:11;;;;;;;16.08;5.47;;;29.90;99.70;;;;;;5059638;28;20087;-72
2023/12/17 00:03:38;;;;;;;8.35;2.33;;;29.80;99.20;;;;;;5066067;28;20013;-72
2023/12/17 00:06:05;;;;;;;7.15;2.33;;;29.50;99.10;;;;;;5055934;28;20036;-67
2023/12/17 00:08:32;;;;;;;14.13;4.43;;;29.10;99.70;;;;;;5060773;28;20395;-72
2023/12/17 00:11:00;;;;;;;7.07;2.63;;;29.40;99.10;;;;;;5062555;28;20406;-70
2023/12/17 00:13:27;;;;;;;5.40;2.05;;;29.20;99.70;;;;;;5065767;28;20647;-75
2023/12/17 00:15:54;;;;;;;9.27;2.70;;;29.70;98.50;;;;;;5064464;28;20024;-70
2023/12/17 00:18:21;;;;;;;7.88;3.08;;;29.90;99.10;;;;;;5055617;28;20019;-68
2023/12/17 00:20:48;;;;;;;8.20;2.55;;;30.10;98.40;;;;;;5063112;28;20059;-72
2023/12/17 00:23:15;;;;;;;12.63;2.75;;;30.20;98.20;;;;;;5061599;28;20012;-68
2023/12/17 00:25:42;;;;;;;9.52;3.00;;;29.60;98.60;;;;;;5051583;28;20677;-71
2023/12/17 00:28:09;;;;;;;12.25;3.22;;;29.10;99.40;;;;;;5053196;28;20056;-71
2023/12/17 00:30:36;;;;;;;7.03;2.83;;;28.70;99.80;;;;;;5061749;28;20535;-71
2023/12/17 00:33:04;;;;;;;10.07;2.60;;;28.40;99.90;;;;;;5060914;28;20059;-69
2023/12/17 00:35:31;;;;;;;6.72;2.25;;;28.50;99.90;;;;;;5062819;28;20268;-73
2023/12/17 00:37:58;;;;;;;7.22;2.53;;;28.70;99.50;;;;;;5060645;28;20031;-76
2023/12/17 00:40:25;;;;;;;11.55;2.83;;;28.70;99.70;;;;;;5061388;28;20028;-71
2023/12/17 00:42:52;;;;;;;9.88;2.58;;;28.90;99.30;;;;;;5060400;28;20431;-73
2023/12/17 00:45:19;;;;;;;7.78;2.67;;;28.90;99.40;;;;;;5062082;28;20029;-73
2023/12/17 00:47:46;;;;;;;7.00;2.70;;;29.80;98.80;;;;;;5061195;28;20470;-77
2023/12/17 00:50:14;;;;;;;8.20;3.60;;;30.40;98.40;;;;;;5059458;28;20179;-74
2023/12/17 00:52:41;;;;;;;7.53;3.10;;;31.30;97.30;;;;;;5059892;28;20558;-71
2023/12/17 00:55:08;;;;;;;8.60;2.47;;;31.20;96.60;;;;;;5060255;28;20028;-70
2023/12/17 00:57:35;;;;;;;10.07;2.67;;;30.80;97.00;;;;;;5061446;28;20024;-74
2023/12/17 01:00:03;;;;;;;11.52;2.78;;;30.30;97.90;;;;;;5057136;28;20105;-73
2023/12/17 01:02:30;;;;;;;9.05;2.63;;;30.30;97.70;;;;;;5057556;28;20036;-73
2023/12/17 01:04:57;;;;;;;10.27;2.95;;;30.10;96.90;;;;;;5056491;28;20044;-69
2023/12/17 01:07:24;;;;;;;9.38;3.15;;;30.10;97.60;;;;;;5057725;28;20029;-71
2023/12/17 01:09:52;;;;;;;9.80;2.90;;;30.10;97.50;;;;;;5057376;28;20294;-74
2023/12/17 01:12:19;;;;;;;8.80;2.90;;;30.20;97.10;;;;;;5057469;28;20491;-73
2023/12/17 01:14:46;;;;;;;7.90;2.90;;;30.30;97.30;;;;;;5040280;28;20031;-70
2023/12/17 01:17:13;;;;;;;6.88;2.38;;;31.00;96.40;;;;;;5057990;28;20519;-70
2023/12/17 01:19:40;;;;;;;7.18;2.70;;;31.70;96.80;;;;;;5058165;28;20013;-70
2023/12/17 01:22:08;;;;;;;7.43;2.55;;;31.70;95.70;;;;;;5059897;28;20021;-69
2023/12/17 01:24:35;;;;;;;7.28;2.55;;;31.40;95.80;;;;;;5057346;28;20087;-69
2023/12/17 01:27:02;;;;;;;8.48;2.72;;;31.50;95.90;;;;;;5057778;28;20084;-68
2023/12/17 01:29:29;;;;;;;5.90;2.55;;;31.80;95.80;;;;;;5055155;28;20134;-67
2023/12/17 01:31:57;;;;;;;8.10;2.50;;;31.30;95.80;;;;;;5055368;28;20106;-68
2023/12/17 01:34:25;;;;;;;7.63;3.00;;;30.80;95.60;;;;;;5056828;28;20045;-70
2023/12/17 01:36:53;;;;;;;12.38;3.35;;;29.80;96.60;;;;;;5057517;28;20040;-70
2023/12/17 01:39:20;;;;;;;7.70;3.45;;;29.30;97.30;;;;;;5059845;28;20024;-69
2023/12/17 01:41:47;;;;;;;11.32;3.53;;;29.00;97.70;;;;;;5061299;28;20025;-66
2023/12/17 01:44:14;;;;;;;11.48;3.10;;;28.80;97.90;;;;;;5058981;28;20429;-67
2023/12/17 01:46:42;;;;;;;7.53;2.58;;;28.70;97.90;;;;;;5054186;28;20028;-67
2023/12/17 01:49:09;;;;;;;10.32;3.10;;;28.80;98.30;;;;;;5056749;28;20033;-70
2023/12/17 01:51:41;;;;;;;7.82;4.00;;;29.30;97.80;;;;;;5059103;28;20036;-70
2023/12/17 01:54:11;;;;;;;8.52;3.63;;;29.50;97.90;;;;;;5055084;28;20025;-70
2023/12/17 01:56:38;;;;;;;7.60;3.40;;;29.50;98.00;;;;;;5054516;28;20077;-72
2023/12/17 01:59:06;;;;;;;11.45;2.88;;;29.50;98.00;;;;;;5057640;28;20028;-73
2023/12/17 02:01:33;;;;;;;7.32;2.80;;;29.60;97.50;;;;;;5059145;28;20024;-70
2023/12/17 02:04:01;;;;;;;6.63;3.03;;;29.60;97.00;;;;;;5060155;28;20025;-70
2023/12/17 02:06:28;;;;;;;11.07;3.10;;;29.40;97.70;;;;;;5059196;28;20368;-70
2023/12/17 02:08:55;;;;;;;11.00;5.40;;;29.20;98.00;;;;;;5059489;28;20418;-71
2023/12/17 02:11:25;;;;;;;9.00;3.65;;;29.10;98.20;;;;;;5058694;28;20032;-69
2023/12/17 02:13:52;;;;;;;7.05;2.85;;;29.10;97.60;;;;;;5058223;28;20542;-69
2023/12/17 02:16:19;;;;;;;13.15;3.20;;;29.20;97.60;;;;;;5056703;28;20021;-69
2023/12/17 02:18:46;;;;;;;9.00;3.00;;;29.40;97.30;;;;;;5058555;28;20025;-71
2023/12/17 02:21:13;;;;;;;7.13;2.70;;;29.40;97.30;;;;;;5059292;28;20028;-67
2023/12/17 02:23:43;;;;;;;8.18;2.95;;;29.50;97.80;;;;;;5059979;28;20024;-69
2023/12/17 02:26:11;;;;;;;5.97;2.70;;;29.90;96.90;;;;;;5059277;28;20021;-69
2023/12/17 02:28:38;;;;;;;7.43;2.67;;;30.10;96.70;;;;;;5056782;28;20645;-70
2023/12/17 02:31:05;;;;;;;9.00;2.88;;;30.10;96.90;;;;;;5057059;28;20029;-70
2023/12/17 02:33:32;;;;;;;6.90;2.47;;;30.30;96.60;;;;;;5057998;28;20507;-69
2023/12/17 02:35:59;;;;;;;6.72;2.85;;;30.90;97.00;;;;;;5057765;28;20119;-70
2023/12/17 02:38:26;;;;;;;8.60;2.67;;;31.60;95.80;;;;;;5054247;28;20470;-68
2023/12/17 02:40:53;;;;;;;7.22;2.78;;;32.20;94.80;;;;;;5059221;28;20017;-66
2023/12/17 02:43:20;;;;;;;5.55;2.25;;;32.30;94.60;;;;;;5057208;28;20105;-67
2023/12/17 02:45:47;;;;;;;10.40;2.40;;;32.40;93.90;;;;;;5057340;28;20085;-69
2023/12/17 02:48:14;;;;;;;9.25;2.90;;;32.40;93.80;;;;;;5056614;28;20471;-68
2023/12/17 02:50:42;;;;;;;5.35;2.28;;;32.50;94.30;;;;;;5058689;28;20687;-68
2023/12/17 02:53:09;;;;;;;7.28;2.50;;;32.30;93.70;;;;;;5057833;28;20048;-68
2023/12/17 02:55:36;;;;;;;5.30;2.80;;;32.00;93.60;;;;;;5057323;28;20066;-68
2023/12/17 02:58:06;;;;;;;6.85;2.63;;;31.30;94.60;;;;;;5058890;28;20232;-66
2023/12/17 03:00:33;;;;;;;8.07;2.60;;;30.70;95.30;;;;;;5057968;28;20146;-67
2023/12/17 03:03:00;;;;;;;5.75;2.30;;;30.40;95.20;;;;;;5058546;28;20435;-68
2023/12/17 03:05:27;;;;;;;10.57;3.08;;;31.00;94.50;;;;;;5056305;28;20151;-67
2023/12/17 03:07:54;;;;;;;7.05;2.30;;;30.60;94.70;;;;;;5055833;28;20785;-67
2023/12/17 03:10:22;;;;;;;7.25;2.38;;;30.80;95.10;;;;;;5055336;28;20025;-67
2023/12/17 03:12:49;;;;;;;9.82;2.80;;;31.40;94.30;;;;;;5056947;28;20040;-68
2023/12/17 03:15:16;;;;;;;6.65;2.47;;;31.70;94.10;;;;;;5053784;28;21644;-65
2023/12/17 03:17:43;;;;;;;7.90;2.63;;;31.30;93.80;;;;;;5050715;28;20028;-68
2023/12/17 03:20:11;;;;;;;11.98;3.22;;;30.60;94.50;;;;;;5056253;28;20048;-65
2023/12/17 03:22:38;;;;;;;7.03;2.50;;;30.00;95.20;;;;;;5056118;28;20555;-69
2023/12/17 03:25:06;;;;;;;8.68;2.40;;;29.60;95.50;;;;;;5056006;28;20103;-65
2023/12/17 03:27:33;;;;;;;10.77;2.95;;;29.70;95.40;;;;;;5056506;28;20037;-68
2023/12/17 03:30:00;;;;;;;9.40;2.75;;;29.60;96.00;;;;;;5053226;28;20060;-67
2023/12/17 03:32:27;;;;;;;6.68;2.40;;;29.60;95.40;;;;;;5054351;28;20123;-66
2023/12/17 03:34:54;;;;;;;5.80;2.28;;;30.00;95.80;;;;;;5060571;28;20040;-67
2023/12/17 03:37:21;;;;;;;8.48;2.70;;;31.10;94.30;;;;;;5059560;28;20247;-68
2023/12/17 03:39:50;;;;;;;9.38;2.53;;;31.70;93.70;;;;;;5061475;28;20771;-65
2023/12/17 03:42:17;;;;;;;7.35;2.35;;;31.00;94.90;;;;;;5062000;28;20025;-68
2023/12/17 03:44:46;;;;;;;7.47;2.78;;;30.50;94.80;;;;;;5061240;28;20568;-66
2023/12/17 03:47:13;;;;;;;8.77;2.72;;;29.70;95.00;;;;;;5059992;28;20173;-68
2023/12/17 03:49:40;;;;;;;10.38;2.97;;;29.20;95.90;;;;;;5059834;28;20094;-66
2023/12/17 03:52:07;;;;;;;5.57;2.22;;;29.30;95.70;;;;;;5061171;28;20483;-66
2023/12/17 03:54:34;;;;;;;7.32;2.85;;;29.90;95.50;;;;;;5076771;28;20552;-70
2023/12/17 03:57:03;;;;;;;6.60;2.40;;;30.20;95.20;;;;;;5065558;28;20029;-69
2023/12/17 03:59:30;;;;;;;9.10;2.70;;;30.10;95.00;;;;;;5066530;28;20082;-69
2023/12/17 04:02:01;;;;;;;11.07;2.38;;;30.20;95.00;;;;;;5063625;28;20520;-70
2023/12/17 04:04:28;;;;;;;6.97;2.07;;;29.80;95.10;;;;;;5061887;28;20032;-68
2023/12/17 04:06:55;;;;;;;9.45;2.75;;;29.90;95.40;;;;;;5059137;28;20289;-67
2023/12/17 04:09:23;;;;;;;8.38;2.42;;;30.00;94.60;;;;;;5064647;28;20246;-69
2023/12/17 04:11:50;;;;;;;9.80;2.47;;;29.70;95.00;;;;;;5059983;28;20062;-67
2023/12/17 04:14:17;;;;;;;6.68;2.08;;;30.20;95.20;;;;;;5061382;28;20395;-68
2023/12/17 04:16:44;;;;;;;8.43;2.47;;;30.10;94.60;;;;;;5058339;28;20035;-69
2023/12/17 06:13:00;;;;;;;12.77;3.17;;;27.10;99.40;;;;;;4725227;27;10001264;-67
2023/12/17 06:15:27;;;;;;;13.23;2.78;;;27.00;99.60;;;;;;5057516;28;20036;-66
2023/12/17 06:17:54;;;;;;;9.07;2.80;;;27.10;99.10;;;;;;5074219;28;20025;-64
2023/12/17 06:20:21;;;;;;;11.20;2.63;;;27.20;99.00;;;;;;5076081;28;20103;-69
2023/12/17 06:22:50;;;;;;;7.55;3.17;;;27.30;99.40;;;;;;5075490;28;20040;-67
2023/12/17 06:25:17;;;;;;;7.43;2.75;;;27.20;99.40;;;;;;5074319;28;20055;-68
2023/12/17 06:27:52;;;;;;;9.18;2.80;;;27.30;99.20;;;;;;5073991;28;20107;-70
2023/12/17 06:30:19;;;;;;;8.77;2.55;;;27.30;98.60;;;;;;5069446;28;20039;-64
2023/12/17 06:32:46;;;;;;;7.30;2.20;;;27.20;99.50;;;;;;5076248;28;20444;-70
2023/12/17 06:35:13;;;;;;;10.18;3.17;;;27.30;99.20;;;;;;5075133;28;20047;-68
2023/12/17 06:37:40;;;;;;;11.60;2.72;;;26.90;99.20;;;;;;5074822;28;20020;-69
2023/12/17 06:40:09;;;;;;;6.53;2.85;;;26.50;99.90;;;;;;5075262;28;20394;-65
2023/12/17 06:42:39;;;;;;;9.40;2.90;;;26.60;99.90;;;;;;5074252;28;20398;-65
2023/12/17 06:45:08;;;;;;;10.60;2.45;;;26.80;99.80;;;;;;5076023;28;20406;-68
2023/12/17 06:47:35;;;;;;;13.43;3.25;;;26.60;99.90;;;;;;5076355;28;20039;-67
2023/12/17 06:50:02;;;;;;;11.10;3.42;;;26.60;99.90;;;;;;5074972;28;20032;-71
2023/12/17 06:52:29;;;;;;;8.07;2.50;;;26.90;99.90;;;;;;5073043;28;20087;-64
2023/12/17 06:54:56;;;;;;;7.63;2.50;;;27.10;99.90;;;;;;5070009;28;20036;-63
2023/12/17 06:57:24;;;;;;;8.05;2.78;;;27.30;99.80;;;;;;5067857;28;20478;-68
2023/12/17 06:59:51;;;;;;;8.82;2.83;;;27.30;99.40;;;;;;5070545;28;20526;-67
2023/12/17 07:02:21;;;;;;;6.03;2.15;;;27.10;99.90;;;;;;5066859;28;20035;-64
2023/12/17 07:04:48;;;;;;;8.00;2.80;;;27.10;99.90;;;;;;5076535;28;20409;-71
2023/12/17 07:07:15;;;;;;;7.75;2.70;;;27.00;99.90;;;;;;5073577;28;20036;-66
2023/12/17 07:09:42;;;;;;;8.00;3.28;;;26.90;99.90;;;;;;5071005;28;20031;-67
2023/12/17 07:12:10;;;;;;;9.40;3.03;;;26.80;99.90;;;;;;5074494;28;20036;-70
2023/12/17 07:14:37;;;;;;;19.45;8.00;;;26.80;99.90;;;;;;5070280;28;20028;-67
2023/12/17 07:17:04;;;;;;;11.10;3.38;;;26.70;99.90;;;;;;5071038;28;20083;-66
2023/12/17 07:19:32;;;;;;;7.40;3.08;;;26.50;99.90;;;;;;5070102;28;20391;-68
2023/12/17 07:21:59;;;;;;;7.18;2.90;;;26.40;99.90;;;;;;5070074;28;20119;-67
2023/12/17 07:24:26;;;;;;;13.07;3.38;;;26.20;99.90;;;;;;5055273;28;20079;-68
2023/12/17 07:26:53;;;;;;;73.93;26.13;;;26.10;99.90;;;;;;5057696;28;20428;-71
2023/12/17 07:29:20;;;;;;;92.18;37.45;;;26.00;99.90;;;;;;5054851;28;20028;-64
2023/12/17 07:31:47;;;;;;;74.22;40.88;;;26.00;99.90;;;;;;5057021;28;20032;-67
2023/12/17 07:34:14;;;;;;;38.95;21.33;;;25.80;99.90;;;;;;5056638;28;20384;-66
2023/12/17 07:36:42;;;;;;;137.35;98.95;;;25.80;99.90;;;;;;5056943;28;20220;-66
2023/12/17 07:39:09;;;;;;;21.15;7.75;;;25.80;99.90;;;;;;5056294;28;20073;-68
2023/12/17 07:41:36;;;;;;;19.92;7.10;;;25.90;99.90;;;;;;5057888;28;20036;-73
2023/12/17 07:44:03;;;;;;;14.98;6.57;;;25.90;99.90;;;;;;5038413;28;20031;-66
2023/12/17 07:46:30;;;;;;;15.40;7.00;;;26.00;99.90;;;;;;5056429;28;20575;-68
2023/12/17 07:48:57;;;;;;;11.07;3.35;;;26.00;99.90;;;;;;5056619;28;20095;-69
2023/12/17 07:51:24;;;;;;;10.52;2.63;;;26.00;99.90;;;;;;5056073;28;20479;-71
2023/12/17 07:53:51;;;;;;;8.75;3.42;;;25.90;99.90;;;;;;5039605;28;20249;-67
2023/12/17 07:56:18;;;;;;;11.15;3.70;;;25.80;99.90;;;;;;5055694;28;20032;-69
2023/12/17 07:58:45;;;;;;;13.85;3.97;;;25.80;99.90;;;;;;5056883;28;20036;-69
2023/12/17 08:01:12;;;;;;;13.32;4.70;;;25.70;99.90;;;;;;5055784;28;20346;-66
2023/12/17 08:03:42;;;;;;;11.65;4.97;;;25.60;99.90;;;;;;5053959;28;20111;-65
2023/12/17 08:06:09;;;;;;;10.98;3.50;;;25.60;99.90;;;;;;5053007;28;20197;-67
2023/12/17 08:08:37;;;;;;;6.75;2.90;;;25.50;99.90;;;;;;5053659;28;20680;-70
2023/12/17 08:11:05;;;;;;;11.88;3.63;;;25.50;99.90;;;;;;5052126;28;20044;-68
2023/12/17 08:13:33;;;;;;;9.55;3.00;;;25.50;99.90;;;;;;5055612;28;20020;-69
2023/12/17 08:16:00;;;;;;;6.80;3.33;;;25.40;99.90;;;;;;5059349;28;20186;-65
2023/12/17 08:18:27;;;;;;;11.10;3.53;;;25.20;99.90;;;;;;5054540;28;20460;-64
2023/12/17 08:20:54;;;;;;;7.43;2.70;;;25.20;99.90;;;;;;5054226;28;20029;-73
2023/12/17 08:23:21;;;;;;;10.20;3.95;;;25.10;99.90;;;;;;5052482;28;20151;-70
2023/12/17 08:25:48;;;;;;;7.72;3.22;;;25.00;99.90;;;;;;5052887;28;20025;-68
2023/12/17 08:28:17;;;;;;;7.60;3.25;;;24.90;99.90;;;;;;5052742;28;20020;-72
2023/12/17 08:30:44;;;;;;;11.35;3.35;;;24.90;99.90;;;;;;5053006;28;20574;-71
2023/12/17 08:33:11;;;;;;;9.05;3.03;;;24.90;99.90;;;;;;5052964;28;20021;-70
2023/12/17 08:35:44;;;;;;;9.40;3.05;;;24.80;99.90;;;;;;5051392;28;20627;-68
2023/12/17 08:38:13;;;;;;;;;;;24.80;99.90;;;;;;5034557;28;20112;-70
2023/12/17 08:40:41;;;;;;;9.65;2.65;;;24.80;99.90;;;;;;5052437;28;19912;-70
2023/12/17 08:43:12;;;;;;;8.82;3.38;;;24.80;99.90;;;;;;5052375;28;20035;-68
2023/12/17 08:45:42;;;;;;;10.63;2.55;;;24.70;99.90;;;;;;5053233;28;20062;-68
2023/12/17 08:48:09;;;;;;;9.15;2.42;;;24.60;99.90;;;;;;5054747;28;20054;-66
2023/12/17 08:50:36;;;;;;;10.98;3.60;;;24.40;99.90;;;;;;5052369;28;20437;-66
2023/12/17 08:53:07;;;;;;;11.40;2.95;;;24.20;99.90;;;;;;5052158;28;20553;-68
2023/12/17 08:55:34;;;;;;;12.18;2.65;;;24.10;99.90;;;;;;5053430;28;20048;-72
2023/12/17 08:58:01;;;;;;;6.38;2.53;;;23.90;99.90;;;;;;5052640;28;20431;-67
2023/12/17 09:00:28;;;;;;;6.75;2.67;;;23.80;99.90;;;;;;5050387;28;20246;-68
2023/12/17 09:02:55;;;;;;;11.90;3.10;;;23.80;99.90;;;;;;5052561;28;20028;-67
2023/12/17 09:05:22;;;;;;;7.80;2.17;;;23.70;99.90;;;;;;5051432;28;20033;-71
2023/12/17 09:07:49;;;;;;;10.02;2.33;;;23.70;99.90;;;;;;5050085;28;20039;-70
2023/12/17 09:10:16;;;;;;;10.07;3.65;;;23.70;99.90;;;;;;5051686;28;20110;-65
2023/12/17 09:12:43;;;;;;;9.10;3.08;;;23.70;99.90;;;;;;5050838;28;20511;-65
2023/12/17 09:15:11;;;;;;;9.93;2.70;;;23.70;99.90;;;;;;5047911;28;20428;-66
2023/12/17 09:17:42;;;;;;;11.75;3.13;;;23.70;99.90;;;;;;5052669;28;20032;-67
2023/12/17 09:20:09;;;;;;;9.52;2.60;;;23.80;99.90;;;;;;5050499;28;20050;-66
2023/12/17 09:22:36;;;;;;;7.05;2.38;;;23.80;99.90;;;;;;5050098;28;21137;-67
2023/12/17 09:25:04;;;;;;;7.88;3.00;;;23.80;99.90;;;;;;5051955;28;20040;-67
2023/12/17 09:27:31;;;;;;;8.05;2.65;;;23.70;99.90;;;;;;5049869;28;20120;-67
2023/12/17 09:29:58;;;;;;;7.47;2.90;;;23.80;99.90;;;;;;5045727;28;20510;-66
2023/12/17 09:34:52;;;;;;;5.20;2.25;;;23.80;99.90;;;;;;5004813;28;20046;-70
2023/12/17 09:37:20;;;;;;;9.88;2.50;;;23.70;99.90;;;;;;5010823;28;20026;-73
2023/12/17 09:39:47;;;;;;;5.55;2.40;;;23.60;99.90;;;;;;5010380;28;20914;-67
2023/12/17 09:42:18;;;;;;;8.70;2.40;;;23.60;99.90;;;;;;5011177;28;20064;-74
2023/12/17 09:44:45;;;;;;;6.78;2.38;;;23.50;99.90;;;;;;5012691;28;20048;-67
2023/12/17 09:47:15;;;;;;;9.40;2.13;;;23.60;99.90;;;;;;5011363;28;20556;-67
2023/12/17 09:49:42;;;;;;;6.78;3.25;;;23.50;99.90;;;;;;5012164;28;20034;-68
2023/12/17 09:52:15;;;;;;;6.72;2.30;;;23.60;99.90;;;;;;5009902;28;20030;-68
2023/12/17 09:54:43;;;;;;;5.93;2.08;;;23.50;99.90;;;;;;5010485;28;20087;-68
2023/12/17 09:57:12;;;;;;;8.25;2.47;;;23.40;99.90;;;;;;5011942;28;20034;-71
2023/12/17 09:59:42;;;;;;;7.57;2.17;;;23.20;99.90;;;;;;5010062;28;20686;-71
2023/12/17 10:02:19;;;;;;;10.50;2.60;;;23.20;99.90;;;;;;5011399;28;20061;-72
2023/12/17 10:04:46;;;;;;;8.25;3.28;;;23.20;99.90;;;;;;5010571;28;20335;-67
2023/12/17 10:07:13;;;;;;;8.35;2.20;;;23.20;99.90;;;;;;5011271;28;20083;-72
2023/12/17 10:09:40;;;;;;;8.18;2.22;;;23.10;99.90;;;;;;5010808;28;20025;-67
2023/12/17 10:12:07;;;;;;;5.65;2.80;;;23.20;99.90;;;;;;5012242;28;20704;-69
2023/12/17 10:14:36;;;;;;;7.38;2.05;;;23.20;99.90;;;;;;5009895;28;20029;-68
2023/12/17 10:17:03;;;;;;;6.60;2.28;;;23.20;99.90;;;;;;5011749;28;20025;-66
2023/12/17 10:19:30;;;;;;;5.72;2.05;;;23.30;99.90;;;;;;5011492;28;20084;-66
2023/12/17 10:21:57;;;;;;;8.18;2.28;;;23.30;99.90;;;;;;5011758;28;20060;-71
2023/12/17 10:24:50;;;;;;;11.82;2.53;;;23.50;99.90;;;;;;5009417;28;20037;-68
2023/12/17 10:27:22;;;;;;;9.65;2.63;;;23.40;99.90;;;;;;5008303;28;20294;-71
2023/12/17 10:29:50;;;;;;;10.40;2.38;;;23.20;99.90;;;;;;5008092;28;20030;-71
2023/12/17 10:32:26;;;;;;;9.45;2.30;;;23.10;99.90;;;;;;5010389;28;20033;-66
2023/12/17 10:34:54;;;;;;;6.57;2.08;;;23.10;99.90;;;;;;5010354;28;20035;-68
2023/12/17 10:37:25;;;;;;;9.77;2.25;;;23.00;99.90;;;;;;5010537;28;20043;-67
2023/12/17 10:39:56;;;;;;;15.38;3.25;;;23.00;99.90;;;;;;5010921;28;21623;-69
2023/12/17 10:42:24;;;;;;;5.47;2.10;;;23.00;99.90;;;;;;5008462;28;20029;-69
2023/12/17 10:44:53;;;;;;;8.30;2.47;;;23.00;99.90;;;;;;5007918;28;20459;-68
2023/12/17 10:47:24;;;;;;;9.40;2.90;;;23.00;99.90;;;;;;5008804;28;20119;-70
2023/12/17 10:49:56;;;;;;;4.82;1.83;;;22.90;99.90;;;;;;5009509;28;20041;-69
2023/12/17 10:52:23;;;;;;;10.88;5.78;;;22.90;99.90;;;;;;5008031;28;20041;-69
2023/12/17 10:54:51;;;;;;;10.52;4.53;;;22.80;99.90;;;;;;5009681;28;20148;-67
2023/12/17 10:57:22;;;;;;;11.73;3.70;;;22.90;99.90;;;;;;5009295;28;20024;-70
2023/12/17 10:59:52;;;;;;;10.98;6.38;;;22.90;99.90;;;;;;5013449;28;20044;-69
2023/12/17 11:02:25;;;;;;;10.18;3.35;;;22.80;99.90;;;;;;5027818;28;20045;-68
2023/12/17 11:04:52;;;;;;;8.15;2.53;;;22.70;99.90;;;;;;5013411;28;20037;-71
2023/12/17 11:07:20;;;;;;;10.95;2.88;;;22.70;99.90;;;;;;5020285;28;20030;-71
2023/12/17 11:09:48;;;;;;;9.07;2.50;;;22.90;99.90;;;;;;5021708;28;20259;-68
2023/12/17 11:12:20;;;;;;;13.02;3.00;;;23.00;99.90;;;;;;5019752;28;20036;-67
2023/12/17 11:14:47;;;;;;;10.63;2.70;;;23.10;99.90;;;;;;5027408;28;20534;-71
2023/12/17 11:17:17;;;;;;;11.20;2.65;;;22.90;99.90;;;;;;5023877;28;20349;-67
2023/12/17 11:19:53;;;;;;;12.25;3.10;;;23.00;99.90;;;;;;5020268;28;20555;-72
2023/12/17 11:22:24;;;;;;;7.38;2.15;;;23.00;99.90;;;;;;5019298;28;20468;-70
2023/12/17 11:24:57;;;;;;;8.52;2.55;;;23.00;99.90;;;;;;5022115;28;20234;-69
2023/12/17 11:27:26;;;;;;;9.85;2.20;;;23.00;99.90;;;;;;5020439;28;20116;-68
2023/12/17 11:29:56;;;;;;;7.28;2.38;;;22.90;99.90;;;;;;5019861;28;20033;-72
2023/12/17 11:32:28;;;;;;;8.13;2.47;;;22.80;99.90;;;;;;5019753;28;20072;-70
2023/12/17 11:34:57;;;;;;;8.25;2.17;;;22.70;99.90;;;;;;5021927;28;20037;-71
2023/12/17 11:37:34;;;;;;;9.15;2.63;;;22.60;99.90;;;;;;5020043;28;20025;-68
2023/12/17 11:40:02;;;;;;;7.93;2.30;;;22.70;99.90;;;;;;5021328;28;20067;-69
2023/12/17 11:42:29;;;;;;;6.35;2.28;;;22.70;99.90;;;;;;5019716;28;20083;-73
2023/12/17 11:44:56;;;;;;;10.32;2.55;;;22.70;99.90;;;;;;5020612;28;20504;-73
2023/12/17 11:47:27;;;;;;;9.93;2.60;;;22.60;99.90;;;;;;5020547;28;20037;-68
2023/12/17 11:50:01;;;;;;;9.25;3.00;;;22.70;99.90;;;;;;5020178;28;20021;-72
2023/12/17 11:52:29;;;;;;;7.82;2.08;;;22.60;99.90;;;;;;5019641;28;20038;-70
2023/12/17 11:55:01;;;;;;;7.45;2.20;;;22.40;99.90;;;;;;5021391;28;20392;-69
2023/12/17 11:57:30;;;;;;;8.63;2.40;;;22.30;99.90;;;;;;5020857;28;20025;-68
2023/12/17 11:59:57;;;;;;;15.13;2.70;;;22.20;99.90;;;;;;5021717;28;20049;-68
2023/12/17 12:02:33;;;;;;;7.90;2.38;;;22.20;99.90;;;;;;5020018;28;20298;-71
2023/12/17 12:05:00;;;;;;;7.45;2.92;;;22.20;99.90;;;;;;5022191;28;20030;-71
2023/12/17 12:07:27;;;;;;;8.10;2.38;;;22.30;99.90;;;;;;5020138;28;20116;-67
2023/12/17 12:10:07;;;;;;;6.57;2.17;;;22.30;99.90;;;;;;5023510;28;20025;-71
2023/12/17 12:12:34;;;;;;;12.88;2.78;;;22.30;99.90;;;;;;5019401;28;20033;-71
2023/12/17 12:15:02;;;;;;;7.53;2.30;;;22.30;99.90;;;;;;5020659;28;20036;-72
2023/12/17 12:17:41;;;;;;;10.73;2.78;;;22.20;99.90;;;;;;5022308;28;20036;-72
2023/12/17 12:20:09;;;;;;;10.98;2.97;;;22.10;99.90;;;;;;5020987;28;20029;-71
2023/12/17 12:22:37;;;;;;;7.95;3.00;;;22.10;99.90;;;;;;5020121;28;20029;-67
2023/12/17 12:25:05;;;;;;;10.18;2.88;;;22.10;99.90;;;;;;5020759;28;20040;-72
2023/12/17 12:27:32;;;;;;;11.65;2.80;;;22.00;99.90;;;;;;5021565;28;20033;-69
2023/12/17 12:30:00;;;;;;;8.02;3.33;;;21.90;99.90;;;;;;5027050;28;20419;-68
2023/12/17 12:32:31;;;;;;;9.55;2.63;;;21.80;99.90;;;;;;5019984;28;20068;-71
2023/12/17 12:34:59;;;;;;;12.77;3.73;;;21.80;99.90;;;;;;5020609;28;20036;-67
2023/12/17 12:37:33;;;;;;;8.95;3.15;;;21.70;99.90;;;;;;5018749;28;20285;-72
2023/12/17 12:40:01;;;;;;;7.35;2.65;;;21.80;99.90;;;;;;5020606;28;20041;-71
2023/12/17 12:42:31;;;;;;;9.23;2.97;;;21.90;99.90;;;;;;5022311;28;20052;-72
2023/12/17 12:44:58;;;;;;;14.82;3.42;;;22.20;99.90;;;;;;5023663;28;20095;-69
2023/12/17 12:47:26;;;;;;;11.43;2.78;;;22.30;99.90;;;;;;5020878;28;20162;-68
2023/12/17 12:49:53;;;;;;;13.00;3.40;;;22.20;99.90;;;;;;5021133;28;20033;-73
2023/12/17 12:52:22;;;;;;;10.00;2.88;;;22.10;99.90;;;;;;5020690;28;20033;-67
2023/12/17 12:54:51;;;;;;;10.52;2.80;;;22.00;99.90;;;;;;5021018;28;20033;-72
2023/12/17 12:57:19;;;;;;;9.02;2.83;;;21.90;99.90;;;;;;5020438;28;20029;-69
2023/12/17 12:59:46;;;;;;;9.07;2.33;;;21.80;99.90;;;;;;5020005;28;20153;-69
2023/12/17 13:02:13;;;;;;;11.63;2.95;;;21.80;99.90;;;;;;5019468;28;20029;-71
2023/12/17 13:04:41;;;;;;;10.80;2.60;;;21.80;99.90;;;;;;5020802;28;20044;-71
2023/12/17 13:07:08;;;;;;;9.77;3.13;;;21.90;99.90;;;;;;5019496;28;20548;-70
2023/12/17 13:09:35;;;;;;;12.05;3.25;;;22.00;99.90;;;;;;5019117;28;20056;-71
2023/12/17 13:12:02;;;;;;;8.10;2.47;;;22.10;99.90;;;;;;5019347;28;20041;-71
2023/12/17 13:14:30;;;;;;;8.10;2.90;;;22.20;99.90;;;;;;5020819;28;20439;-67
2023/12/17 13:16:57;;;;;;;13.70;3.17;;;22.20;99.90;;;;;;5019925;28;20083;-67
2023/12/17 13:19:24;;;;;;;9.90;2.58;;;22.20;99.90;;;;;;5020401;28;20018;-72
2023/12/17 13:21:52;;;;;;;12.50;2.70;;;22.20;99.90;;;;;;5019515;28;20017;-69
2023/12/17 13:24:20;;;;;;;10.10;2.78;;;22.20;99.90;;;;;;5020150;28;20369;-67
2023/12/17 13:26:47;;;;;;;9.88;2.78;;;22.00;99.90;;;;;;5020539;28;20539;-67
2023/12/17 13:29:14;;;;;;;11.73;2.65;;;22.00;99.90;;;;;;5019630;28;20025;-66
2023/12/17 13:31:42;;;;;;;11.32;3.17;;;22.00;99.90;;;;;;5020387;28;20029;-66
2023/12/17 13:34:09;;;;;;;7.60;2.97;;;22.10;99.90;;;;;;5020528;28;20825;-66
2023/12/17 13:36:37;;;;;;;8.18;2.65;;;21.90;99.90;;;;;;5021070;28;20234;-70
2023/12/17 13:39:04;;;;;;;12.13;3.17;;;21.80;99.90;;;;;;5020497;28;20133;-68
2023/12/17 13:41:31;;;;;;;10.23;3.40;;;21.90;99.90;;;;;;5019622;28;20075;-67
2023/12/17 13:43:58;;;;;;;8.43;3.20;;;21.80;99.90;;;;;;5019379;28;21067;-68
2023/12/17 13:46:25;;;;;;;10.70;3.22;;;21.70;99.90;;;;;;5019727;28;20029;-71
2023/12/17 13:48:52;;;;;;;7.57;2.72;;;21.60;99.90;;;;;;5020175;28;20018;-69
2023/12/17 13:51:20;;;;;;;7.28;3.28;;;21.50;99.90;;;;;;5019735;28;20500;-67
2023/12/17 13:53:50;;;;;;;11.68;3.35;;;21.40;99.90;;;;;;5020626;28;20387;-67
2023/12/17 13:56:17;;;;;;;7.88;3.00;;;21.40;99.90;;;;;;5019940;28;20767;-69
2023/12/17 13:58:45;;;;;;;12.52;3.08;;;21.30;99.90;;;;;;5019357;28;20477;-69
2023/12/17 14:01:12;;;;;;;8.70;2.60;;;21.30;99.90;;;;;;5020571;28;21107;-69
2023/12/17 14:03:39;;;;;;;9.27;3.05;;;21.30;99.90;;;;;;5020580;28;20052;-68
2023/12/17 14:06:14;;;;;;;13.02;3.75;;;21.30;99.90;;;;;;5020087;28;20033;-71
2023/12/17 14:08:41;;;;;;;13.30;3.20;;;21.40;99.90;;;;;;5020127;28;20028;-70
2023/12/17 14:11:08;;;;;;;7.60;3.35;;;21.70;99.90;;;;;;5019167;28;20043;-67
2023/12/17 14:13:35;;;;;;;8.73;2.80;;;21.70;99.90;;;;;;5019072;28;20087;-67
2023/12/17 14:16:02;;;;;;;9.05;2.47;;;21.60;99.90;;;;;;5020125;28;20026;-68
2023/12/17 14:18:30;;;;;;;11.73;3.10;;;21.40;99.90;;;;;;5019995;28;20909;-67
2023/12/17 14:20:57;;;;;;;13.02;3.33;;;21.20;99.90;;;;;;5019022;28;20438;-72
2023/12/17 14:23:24;;;;;;;10.73;3.25;;;21.10;99.90;;;;;;5019595;28;20091;-72
2023/12/17 14:25:51;;;;;;;11.60;3.17;;;20.90;99.90;;;;;;5023018;28;20056;-68
2023/12/17 14:28:18;;;;;;;11.35;3.17;;;20.90;99.90;;;;;;5021756;28;20507;-67
2023/12/17 14:30:46;;;;;;;13.80;3.50;;;20.90;99.90;;;;;;5021276;28;20708;-66
2023/12/17 14:33:13;;;;;;;11.00;3.33;;;20.80;99.90;;;;;;5021634;28;20683;-68
2023/12/17 14:35:40;;;;;;;10.65;3.13;;;20.90;99.90;;;;;;5022837;28;20399;-66
2023/12/17 14:38:08;;;;;;;12.93;3.75;;;20.80;99.90;;;;;;5024684;28;20037;-72
2023/12/17 14:40:35;;;;;;;13.98;3.42;;;20.80;99.90;;;;;;5023504;28;20025;-70
2023/12/17 14:43:02;;;;;;;11.35;3.40;;;20.80;99.90;;;;;;5023202;28;20025;-67